Time,TemperatureF,DewpointF,PressureIn,WindDirection,WindDirectionDegrees,WindSpeedMPH,WindSpeedGustMPH,Humidity,HourlyPrecipIn,Conditions,Clouds,dailyrainin,SoftwareType,DateUTC
2013-04-18 00:01:00,44.2,41.2,30.35,SSW,210,0.0,0.0,89,0.00,,---,0.00,VWS V14.01,2013-04-18 04:01:00,
2013-04-18 00:02:00,44.2,41.2,30.36,SSW,210,0.0,0.0,89,0.00,,---,0.00,VWS V14.01,2013-04-18 04:02:00,
2013-04-18 00:07:00,44.1,40.8,30.36,SSW,210,0.0,0.0,88,0.00,,---,0.00,VWS V14.01,2013-04-18 04:07:00,
2013-04-18 00:12:00,44.0,41.0,30.36,SSW,210,0.0,0.0,89,0.00,,---,0.00,VWS V14.01,2013-04-18 04:12:00,
2013-04-18 00:17:00,44.0,40.7,30.36,SSW,210,0.0,0.0,88,0.00,,---,0.00,VWS V14.01,2013-04-18 04:17:00,
2013-04-18 00:22:00,44.0,40.7,30.37,SSW,210,0.0,0.0,88,0.00,,---,0.00,VWS V14.01,2013-04-18 04:22:00,
2013-04-18 00:27:00,43.9,40.6,30.37,SSW,210,0.0,0.0,88,0.00,,---,0.00,VWS V14.01,2013-04-18 04:27:00,
2013-04-18 00:32:00,44.0,40.7,30.38,SSW,210,0.0,0.0,88,0.00,,---,0.00,VWS V14.01,2013-04-18 04:32:00,
2013-04-18 00:37:00,44.1,40.5,30.38,SSW,210,0.0,0.0,87,0.00,,---,0.00,VWS V14.01,2013-04-18 04:37:00,
2013-04-18 00:42:00,44.2,40.6,30.38,SSW,210,0.0,0.0,87,0.00,,---,0.00,VWS V14.01,2013-04-18 04:42:00,
2013-04-18 00:47:00,44.3,41.3,30.38,SSW,210,1.0,2.0,89,0.00,,---,0.00,VWS V14.01,2013-04-18 04:47:00,
2013-04-18 00:52:00,44.4,41.7,30.38,SSW,210,0.0,1.0,90,0.00,,---,0.00,VWS V14.01,2013-04-18 04:52:00,
2013-04-18 00:57:00,44.3,41.6,30.38,SSW,210,0.0,0.0,90,0.00,,---,0.00,VWS V14.01,2013-04-18 04:57:00,
2013-04-18 01:02:00,44.2,41.7,30.38,SSW,210,0.0,0.0,91,0.00,,---,0.00,VWS V14.01,2013-04-18 05:02:00,
2013-04-18 01:07:00,44.2,41.7,30.39,SSW,210,0.0,0.0,91,0.00,,---,0.00,VWS V14.01,2013-04-18 05:07:00,
2013-04-18 01:12:00,44.3,42.1,30.39,SSW,210,0.0,2.0,92,0.00,,---,0.00,VWS V14.01,2013-04-18 05:12:00,
2013-04-18 01:17:00,44.3,42.1,30.39,SSW,210,0.0,1.0,92,0.00,,---,0.00,VWS V14.01,2013-04-18 05:17:00,
2013-04-18 01:22:00,44.3,42.1,30.40,SSW,210,0.0,1.0,92,0.00,,---,0.00,VWS V14.01,2013-04-18 05:22:00,
2013-04-18 01:27:00,44.3,42.1,30.40,SSW,210,0.0,2.0,92,0.00,,---,0.00,VWS V14.01,2013-04-18 05:27:00,
2013-04-18 01:32:00,44.1,41.9,30.40,SSW,210,0.0,2.0,92,0.00,,---,0.00,VWS V14.01,2013-04-18 05:32:00,
2013-04-18 01:37:00,44.0,41.8,30.39,SSW,210,0.0,0.0,92,0.00,,---,0.00,VWS V14.01,2013-04-18 05:37:00,
2013-04-18 01:42:00,43.9,41.7,30.39,SSW,210,0.0,0.0,92,0.00,,---,0.00,VWS V14.01,2013-04-18 05:42:00,
2013-04-18 01:47:00,43.7,41.5,30.39,SSW,210,0.0,0.0,92,0.00,,---,0.00,VWS V14.01,2013-04-18 05:47:00,
2013-04-18 01:52:00,43.5,41.6,30.39,SSW,210,0.0,0.0,93,0.00,,---,0.00,VWS V14.01,2013-04-18 05:52:00,
2013-04-18 01:57:00,43.3,41.4,30.39,SSW,210,0.0,1.0,93,0.00,,---,0.00,VWS V14.01,2013-04-18 05:57:00,
2013-04-18 02:02:00,43.1,40.9,30.39,SSW,210,0.0,0.0,92,0.00,,---,0.00,VWS V14.01,2013-04-18 06:02:00,
2013-04-18 02:07:00,42.9,40.7,30.39,SSW,210,0.0,0.0,92,0.00,,---,0.00,VWS V14.01,2013-04-18 06:07:00,
2013-04-18 02:12:00,42.8,40.6,30.39,SSW,210,0.0,0.0,92,0.00,,---,0.00,VWS V14.01,2013-04-18 06:12:00,
2013-04-18 02:17:00,42.8,40.6,30.39,SSW,210,0.0,0.0,92,0.00,,---,0.00,VWS V14.01,2013-04-18 06:17:00,
2013-04-18 02:22:00,42.8,40.6,30.39,SSW,210,0.0,0.0,92,0.00,,---,0.00,VWS V14.01,2013-04-18 06:22:00,
2013-04-18 02:27:00,42.9,41.0,30.39,SSW,210,0.0,0.0,93,0.00,,---,0.00,VWS V14.01,2013-04-18 06:27:00,
2013-04-18 02:32:00,42.9,41.0,30.38,SSW,210,0.0,0.0,93,0.00,,---,0.00,VWS V14.01,2013-04-18 06:32:00,
2013-04-18 02:37:00,42.9,41.0,30.38,SSW,210,0.0,0.0,93,0.00,,---,0.00,VWS V14.01,2013-04-18 06:37:00,
2013-04-18 02:42:00,42.8,40.9,30.38,SSW,210,0.0,0.0,93,0.00,,---,0.00,VWS V14.01,2013-04-18 06:42:00,
2013-04-18 02:47:00,42.7,40.8,30.38,SSW,210,0.0,0.0,93,0.00,,---,0.00,VWS V14.01,2013-04-18 06:47:00,
2013-04-18 02:52:00,42.7,40.8,30.38,SSW,210,0.0,1.0,93,0.00,,---,0.00,VWS V14.01,2013-04-18 06:52:00,
2013-04-18 02:57:00,42.7,40.8,30.38,SSW,210,0.0,1.0,93,0.00,,---,0.00,VWS V14.01,2013-04-18 06:57:00,
2013-04-18 03:02:00,42.6,40.7,30.37,SSW,210,0.0,0.0,93,0.00,,---,0.00,VWS V14.01,2013-04-18 07:02:00,
2013-04-18 03:07:00,42.5,40.6,30.37,SSW,210,0.0,0.0,93,0.00,,---,0.00,VWS V14.01,2013-04-18 07:07:00,
2013-04-18 03:12:00,42.3,40.4,30.37,SSW,210,0.0,1.0,93,0.00,,---,0.00,VWS V14.01,2013-04-18 07:12:00,
2013-04-18 03:17:00,42.3,40.4,30.38,SSW,210,0.0,1.0,93,0.00,,---,0.00,VWS V14.01,2013-04-18 07:17:00,
2013-04-18 03:22:00,42.3,40.4,30.38,SSW,210,0.0,1.0,93,0.00,,---,0.00,VWS V14.01,2013-04-18 07:22:00,
2013-04-18 03:27:00,42.5,40.9,30.38,SSW,210,0.0,2.0,94,0.00,,---,0.00,VWS V14.01,2013-04-18 07:27:00,
2013-04-18 03:32:00,42.6,40.7,30.39,SSW,210,0.0,1.0,93,0.00,,---,0.00,VWS V14.01,2013-04-18 07:32:00,
2013-04-18 03:37:00,42.7,41.1,30.38,SSW,210,1.0,1.0,94,0.00,,---,0.00,VWS V14.01,2013-04-18 07:37:00,
2013-04-18 03:42:00,42.8,41.2,30.39,SSW,210,0.0,0.0,94,0.00,,---,0.00,VWS V14.01,2013-04-18 07:42:00,
2013-04-18 03:47:00,42.9,41.3,30.39,SSW,210,0.0,0.0,94,0.00,,---,0.00,VWS V14.01,2013-04-18 07:47:00,
2013-04-18 03:52:00,42.9,41.3,30.40,SSW,210,0.0,0.0,94,0.00,,---,0.00,VWS V14.01,2013-04-18 07:52:00,
2013-04-18 03:57:00,42.9,41.3,30.40,SSW,210,0.0,0.0,94,0.00,,---,0.00,VWS V14.01,2013-04-18 07:57:00,
2013-04-18 04:02:00,42.8,41.2,30.40,SSW,210,2.0,3.0,94,0.00,,---,0.00,VWS V14.01,2013-04-18 08:02:00,
2013-04-18 04:07:00,42.7,40.8,30.40,SSW,210,0.0,2.0,93,0.00,,---,0.00,VWS V14.01,2013-04-18 08:07:00,
2013-04-18 04:12:00,42.5,40.3,30.40,SSW,210,0.0,1.0,92,0.00,,---,0.00,VWS V14.01,2013-04-18 08:12:00,
2013-04-18 04:17:00,42.5,40.3,30.41,SSW,210,0.0,0.0,92,0.00,,---,0.00,VWS V14.01,2013-04-18 08:17:00,
2013-04-18 04:22:00,42.7,40.8,30.41,SSW,210,1.0,1.0,93,0.00,,---,0.00,VWS V14.01,2013-04-18 08:22:00,
2013-04-18 04:27:00,42.7,41.1,30.41,SSW,210,2.0,2.0,94,0.00,,---,0.00,VWS V14.01,2013-04-18 08:27:00,
2013-04-18 04:32:00,42.7,41.1,30.42,SSW,210,2.0,3.0,94,0.00,,---,0.00,VWS V14.01,2013-04-18 08:32:00,
2013-04-18 04:37:00,42.4,40.5,30.42,SSW,210,1.0,3.0,93,0.00,,---,0.00,VWS V14.01,2013-04-18 08:37:00,
2013-04-18 04:42:00,42.3,40.4,30.41,SSW,210,0.0,1.0,93,0.00,,---,0.00,VWS V14.01,2013-04-18 08:42:00,
2013-04-18 04:47:00,42.2,40.3,30.42,SSW,210,0.0,0.0,93,0.00,,---,0.00,VWS V14.01,2013-04-18 08:47:00,
2013-04-18 04:52:00,42.0,40.1,30.41,SSW,210,0.0,0.0,93,0.00,,---,0.00,VWS V14.01,2013-04-18 08:52:00,
2013-04-18 04:57:00,41.8,39.9,30.41,SSW,210,0.0,0.0,93,0.00,,---,0.00,VWS V14.01,2013-04-18 08:57:00,
2013-04-18 05:02:00,41.8,40.2,30.41,SSW,210,1.0,2.0,94,0.00,,---,0.00,VWS V14.01,2013-04-18 09:02:00,
2013-04-18 05:07:00,41.9,40.0,30.41,SSW,210,0.0,3.0,93,0.00,,---,0.00,VWS V14.01,2013-04-18 09:07:00,
2013-04-18 05:12:00,41.9,39.8,30.41,SSW,210,1.0,3.0,92,0.00,,---,0.00,VWS V14.01,2013-04-18 09:12:00,
2013-04-18 05:17:00,41.9,39.5,30.41,SSW,210,0.0,3.0,91,0.00,,---,0.00,VWS V14.01,2013-04-18 09:17:00,
2013-04-18 05:22:00,41.9,39.5,30.41,SSW,210,1.0,3.0,91,0.00,,---,0.00,VWS V14.01,2013-04-18 09:22:00,
2013-04-18 05:27:00,41.9,39.2,30.41,SSW,210,1.0,3.0,90,0.00,,---,0.00,VWS V14.01,2013-04-18 09:27:00,
2013-04-18 05:32:00,41.9,39.5,30.41,SSW,210,0.0,2.0,91,0.00,,---,0.00,VWS V14.01,2013-04-18 09:32:00,
2013-04-18 05:37:00,41.9,39.5,30.42,SSW,210,2.0,2.0,91,0.00,,---,0.00,VWS V14.01,2013-04-18 09:37:00,
2013-04-18 05:42:00,42.0,39.6,30.42,SSW,210,1.0,2.0,91,0.00,,---,0.00,VWS V14.01,2013-04-18 09:42:00,
2013-04-18 05:48:00,42.0,39.8,30.42,SSW,210,2.0,3.0,92,0.00,,---,0.00,VWS V14.01,2013-04-18 09:48:00,
2013-04-18 05:52:00,42.0,39.8,30.42,SSW,210,1.0,3.0,92,0.00,,---,0.00,VWS V14.01,2013-04-18 09:52:00,
2013-04-18 05:57:00,42.0,39.8,30.42,SSW,210,1.0,2.0,92,0.00,,---,0.00,VWS V14.01,2013-04-18 09:57:00,
2013-04-18 06:02:00,41.8,39.7,30.42,SSW,210,0.0,3.0,92,0.00,,---,0.00,VWS V14.01,2013-04-18 10:02:00,
2013-04-18 06:07:00,41.8,39.7,30.42,SSW,210,1.0,3.0,92,0.00,,---,0.00,VWS V14.01,2013-04-18 10:07:00,
2013-04-18 06:12:00,41.7,39.5,30.42,SSW,210,3.0,5.0,92,0.00,,---,0.00,VWS V14.01,2013-04-18 10:12:00,
2013-04-18 06:17:00,41.7,39.5,30.42,SSE,156,1.0,4.0,92,0.00,,---,0.00,VWS V14.01,2013-04-18 10:17:00,
2013-04-18 06:22:00,41.9,39.5,30.42,ESE,108,3.0,4.0,91,0.00,,---,0.00,VWS V14.01,2013-04-18 10:22:00,
2013-04-18 06:28:00,42.1,39.4,30.42,East,99,2.0,5.0,90,0.00,,---,0.00,VWS V14.01,2013-04-18 10:28:00,
2013-04-18 06:33:00,42.5,39.8,30.42,East,99,0.0,4.0,90,0.00,,---,0.00,VWS V14.01,2013-04-18 10:33:00,
2013-04-18 06:38:00,43.0,40.3,30.42,East,99,0.0,3.0,90,0.00,,---,0.00,VWS V14.01,2013-04-18 10:38:00,
2013-04-18 06:43:00,43.2,40.2,30.42,East,99,0.0,2.0,89,0.00,,---,0.00,VWS V14.01,2013-04-18 10:43:00,
2013-04-18 06:48:00,43.6,40.3,30.42,East,99,0.0,2.0,88,0.00,,---,0.00,VWS V14.01,2013-04-18 10:48:00,
2013-04-18 06:53:00,43.9,40.3,30.42,East,100,2.0,3.0,87,0.00,,---,0.00,VWS V14.01,2013-04-18 10:53:00,
2013-04-18 06:58:00,44.2,40.3,30.42,East,99,2.0,3.0,86,0.00,,---,0.00,VWS V14.01,2013-04-18 10:58:00,
2013-04-18 07:03:00,44.6,40.4,30.42,ENE,68,2.0,6.0,85,0.00,,---,0.00,VWS V14.01,2013-04-18 11:03:00,
2013-04-18 07:08:00,44.9,40.7,30.42,ENE,68,1.0,5.0,85,0.00,,---,0.00,VWS V14.01,2013-04-18 11:08:00,
2013-04-18 07:13:00,45.4,41.2,30.42,ENE,68,2.0,5.0,85,0.00,,---,0.00,VWS V14.01,2013-04-18 11:13:00,
2013-04-18 07:18:00,45.9,41.3,30.42,ENE,70,4.0,6.0,84,0.00,,---,0.00,VWS V14.01,2013-04-18 11:18:00,
2013-04-18 07:23:00,46.3,40.8,30.42,ENE,73,5.0,9.0,81,0.00,,---,0.00,VWS V14.01,2013-04-18 11:23:00,
2013-04-18 07:28:00,46.7,40.2,30.42,ENE,68,4.0,7.0,78,0.00,,---,0.00,VWS V14.01,2013-04-18 11:28:00,
2013-04-18 07:33:00,47.1,39.9,30.43,ENE,71,4.0,8.0,76,0.00,,---,0.00,VWS V14.01,2013-04-18 11:33:00,
2013-04-18 07:38:00,47.4,39.5,30.43,East,85,3.0,7.0,74,0.00,,---,0.00,VWS V14.01,2013-04-18 11:38:00,
2013-04-18 07:43:00,47.8,38.9,30.44,East,80,3.0,7.0,71,0.00,,---,0.00,VWS V14.01,2013-04-18 11:43:00,
2013-04-18 07:48:00,48.1,38.8,30.44,East,96,3.0,10.0,70,0.00,,---,0.00,VWS V14.01,2013-04-18 11:48:00,
2013-04-18 07:53:00,48.3,39.7,30.44,East,85,1.0,5.0,72,0.00,,---,0.00,VWS V14.01,2013-04-18 11:53:00,
2013-04-18 07:58:00,48.7,38.6,30.44,East,85,4.0,9.0,68,0.00,,---,0.00,VWS V14.01,2013-04-18 11:58:00,
2013-04-18 08:03:00,49.0,38.5,30.44,East,91,3.0,7.0,67,0.00,,---,0.00,VWS V14.01,2013-04-18 12:03:00,
2013-04-18 08:08:00,49.2,38.7,30.44,ENE,66,9.0,10.0,67,0.00,,---,0.00,VWS V14.01,2013-04-18 12:08:00,
2013-04-18 08:13:00,49.2,38.7,30.44,ESE,111,6.0,10.0,67,0.00,,---,0.00,VWS V14.01,2013-04-18 12:13:00,
2013-04-18 08:18:00,49.2,38.7,30.44,East,83,6.0,10.0,67,0.00,,---,0.00,VWS V14.01,2013-04-18 12:18:00,
2013-04-18 08:23:00,49.2,38.7,30.44,East,94,5.0,8.0,67,0.00,,---,0.00,VWS V14.01,2013-04-18 12:23:00,
2013-04-18 08:28:00,49.6,39.5,30.44,ENE,72,4.0,5.0,68,0.00,,---,0.00,VWS V14.01,2013-04-18 12:28:00,
2013-04-18 08:33:00,50.0,39.9,30.44,ESE,106,1.0,9.0,68,0.00,,---,0.00,VWS V14.01,2013-04-18 12:33:00,
2013-04-18 08:38:00,50.4,40.2,30.44,East,89,6.0,6.0,68,0.00,,---,0.00,VWS V14.01,2013-04-18 12:38:00,
2013-04-18 08:43:00,50.8,39.1,30.44,East,96,4.0,13.0,64,0.00,,---,0.00,VWS V14.01,2013-04-18 12:43:00,
2013-04-18 08:48:00,50.9,39.2,30.44,ENE,73,3.0,10.0,64,0.00,,---,0.00,VWS V14.01,2013-04-18 12:48:00,
2013-04-18 08:53:00,50.9,40.0,30.44,ESE,120,3.0,11.0,66,0.00,,---,0.00,VWS V14.01,2013-04-18 12:53:00,
2013-04-18 08:58:00,50.9,39.2,30.44,ESE,120,4.0,9.0,64,0.00,,---,0.00,VWS V14.01,2013-04-18 12:58:00,
2013-04-18 09:03:00,51.1,39.4,30.44,ESE,115,6.0,12.0,64,0.00,,---,0.00,VWS V14.01,2013-04-18 13:03:00,
2013-04-18 09:08:00,51.1,39.0,30.44,East,87,6.0,10.0,63,0.00,,---,0.00,VWS V14.01,2013-04-18 13:08:00,
2013-04-18 09:13:00,51.2,39.5,30.44,East,96,4.0,10.0,64,0.00,,---,0.00,VWS V14.01,2013-04-18 13:13:00,
2013-04-18 09:18:00,51.4,39.2,30.44,ESE,118,3.0,11.0,63,0.00,,---,0.00,VWS V14.01,2013-04-18 13:18:00,
2013-04-18 09:23:00,51.6,38.6,30.44,ESE,116,1.0,11.0,61,0.00,,---,0.00,VWS V14.01,2013-04-18 13:23:00,
2013-04-18 09:28:00,51.8,38.8,30.44,ESE,107,3.0,11.0,61,0.00,,---,0.00,VWS V14.01,2013-04-18 13:28:00,
2013-04-18 09:33:00,51.7,38.3,30.44,ESE,106,7.0,11.0,60,0.00,,---,0.00,VWS V14.01,2013-04-18 13:33:00,
2013-04-18 09:38:00,51.9,38.9,30.44,SE,131,6.0,14.0,61,0.00,,---,0.00,VWS V14.01,2013-04-18 13:38:00,
2013-04-18 09:43:00,52.0,38.6,30.44,ESE,122,4.0,14.0,60,0.00,,---,0.00,VWS V14.01,2013-04-18 13:43:00,
2013-04-18 09:48:00,51.9,38.9,30.44,ENE,71,4.0,13.0,61,0.00,,---,0.00,VWS V14.01,2013-04-18 13:48:00,
2013-04-18 09:53:00,51.5,39.3,30.44,East,95,16.0,16.0,63,0.00,,---,0.00,VWS V14.01,2013-04-18 13:53:00,
2013-04-18 09:58:00,51.0,39.7,30.44,ESE,115,5.0,16.0,65,0.00,,---,0.00,VWS V14.01,2013-04-18 13:58:00,
2013-04-18 10:03:00,50.9,39.6,30.44,ESE,118,6.0,13.0,65,0.00,,---,0.00,VWS V14.01,2013-04-18 14:03:00,
2013-04-18 10:08:00,50.6,39.7,30.44,ESE,108,7.0,12.0,66,0.00,,---,0.00,VWS V14.01,2013-04-18 14:08:00,
2013-04-18 10:13:00,50.5,39.6,30.44,ESE,110,6.0,16.0,66,0.00,,---,0.00,VWS V14.01,2013-04-18 14:13:00,
2013-04-18 10:18:00,50.9,40.3,30.44,East,100,6.0,13.0,67,0.00,,---,0.00,VWS V14.01,2013-04-18 14:18:00,
2013-04-18 10:23:00,50.9,40.0,30.44,SE,125,7.0,13.0,66,0.00,,---,0.00,VWS V14.01,2013-04-18 14:23:00,
2013-04-18 10:28:00,50.8,40.6,30.45,ENE,75,3.0,13.0,68,0.00,,---,0.00,VWS V14.01,2013-04-18 14:28:00,
2013-04-18 10:33:00,51.2,40.6,30.44,ENE,78,6.0,10.0,67,0.00,,---,0.00,VWS V14.01,2013-04-18 14:33:00,
2013-04-18 10:38:00,51.3,41.1,30.45,South,174,5.0,15.0,68,0.00,,---,0.00,VWS V14.01,2013-04-18 14:38:00,
2013-04-18 10:43:00,51.3,40.3,30.45,ESE,110,9.0,13.0,66,0.00,,---,0.00,VWS V14.01,2013-04-18 14:43:00,
2013-04-18 10:48:00,51.6,40.6,30.45,ESE,117,9.0,14.0,66,0.00,,---,0.00,VWS V14.01,2013-04-18 14:48:00,
2013-04-18 10:53:00,51.9,40.9,30.45,ESE,122,7.0,14.0,66,0.00,,---,0.00,VWS V14.01,2013-04-18 14:53:00,
2013-04-18 10:58:00,52.1,41.1,30.45,East,93,2.0,11.0,66,0.00,,---,0.00,VWS V14.01,2013-04-18 14:58:00,
2013-04-18 11:03:00,51.9,41.3,30.45,East,83,2.0,11.0,67,0.00,,---,0.00,VWS V14.01,2013-04-18 15:03:00,
2013-04-18 11:08:00,52.1,41.1,30.45,ESE,114,4.0,12.0,66,0.00,,---,0.00,VWS V14.01,2013-04-18 15:08:00,
2013-04-18 11:13:00,52.3,41.7,30.45,ESE,112,2.0,10.0,67,0.00,,---,0.00,VWS V14.01,2013-04-18 15:13:00,
2013-04-18 11:18:00,52.2,41.6,30.45,East,88,1.0,12.0,67,0.00,,---,0.00,VWS V14.01,2013-04-18 15:18:00,
2013-04-18 11:23:00,52.8,42.2,30.45,East,89,7.0,7.0,67,0.00,,---,0.00,VWS V14.01,2013-04-18 15:23:00,
2013-04-18 11:28:00,52.4,41.4,30.44,ESE,108,9.0,14.0,66,0.00,,---,0.00,VWS V14.01,2013-04-18 15:28:00,
2013-04-18 11:33:00,52.3,41.7,30.45,ESE,107,9.0,13.0,67,0.00,,---,0.00,VWS V14.01,2013-04-18 15:33:00,
2013-04-18 11:38:00,51.6,41.0,30.45,ESE,110,1.0,12.0,67,0.00,,---,0.00,VWS V14.01,2013-04-18 15:38:00,
2013-04-18 11:43:00,52.0,41.8,30.45,East,89,7.0,11.0,68,0.00,,---,0.00,VWS V14.01,2013-04-18 15:43:00,
2013-04-18 11:48:00,52.4,41.4,30.45,East,96,7.0,11.0,66,0.00,,---,0.00,VWS V14.01,2013-04-18 15:48:00,
2013-04-18 11:53:00,52.4,41.8,30.45,ENE,76,9.0,10.0,67,0.00,,---,0.00,VWS V14.01,2013-04-18 15:53:00,
2013-04-18 11:58:00,52.1,41.9,30.45,East,95,1.0,11.0,68,0.00,,---,0.00,VWS V14.01,2013-04-18 15:58:00,
2013-04-18 12:03:00,53.1,42.1,30.44,East,98,5.0,10.0,66,0.00,,---,0.00,VWS V14.01,2013-04-18 16:03:00,
2013-04-18 12:08:00,53.1,41.7,30.44,ESE,118,1.0,10.0,65,0.00,,---,0.00,VWS V14.01,2013-04-18 16:08:00,
2013-04-18 12:13:00,53.3,41.5,30.44,ESE,106,5.0,11.0,64,0.00,,---,0.00,VWS V14.01,2013-04-18 16:13:00,
2013-04-18 12:18:00,53.1,41.7,30.44,ENE,73,1.0,8.0,65,0.00,,---,0.00,VWS V14.01,2013-04-18 16:18:00,
2013-04-18 12:23:00,53.2,41.3,30.44,East,100,7.0,10.0,64,0.00,,---,0.00,VWS V14.01,2013-04-18 16:23:00,
2013-04-18 12:28:00,53.3,41.0,30.44,ESE,106,2.0,10.0,63,0.00,,---,0.00,VWS V14.01,2013-04-18 16:28:00,
2013-04-18 12:33:00,53.2,41.0,30.43,East,100,6.0,11.0,63,0.00,,---,0.00,VWS V14.01,2013-04-18 16:33:00,
2013-04-18 12:38:00,53.1,40.8,30.43,ESE,102,4.0,12.0,63,0.00,,---,0.00,VWS V14.01,2013-04-18 16:38:00,
2013-04-18 12:44:00,52.8,41.4,30.43,East,94,5.0,11.0,65,0.00,,---,0.00,VWS V14.01,2013-04-18 16:44:00,
2013-04-18 12:49:00,52.8,41.0,30.43,ESE,102,3.0,12.0,64,0.00,,---,0.00,VWS V14.01,2013-04-18 16:49:00,
2013-04-18 12:53:00,52.8,41.0,30.43,ESE,113,3.0,11.0,64,0.00,,---,0.00,VWS V14.01,2013-04-18 16:53:00,
2013-04-18 12:58:00,53.4,41.5,30.43,ESE,107,2.0,10.0,64,0.00,,---,0.00,VWS V14.01,2013-04-18 16:58:00,
2013-04-18 13:03:00,53.3,41.8,30.42,East,88,7.0,11.0,65,0.00,,---,0.00,VWS V14.01,2013-04-18 17:03:00,
2013-04-18 13:08:00,53.5,42.0,30.42,East,92,11.0,14.0,65,0.00,,---,0.00,VWS V14.01,2013-04-18 17:08:00,
2013-04-18 13:14:00,53.2,41.8,30.42,East,89,5.0,12.0,65,0.00,,---,0.00,VWS V14.01,2013-04-18 17:14:00,
2013-04-18 13:19:00,53.4,41.9,30.41,East,85,3.0,8.0,65,0.00,,---,0.00,VWS V14.01,2013-04-18 17:19:00,
2013-04-18 13:24:00,53.1,41.7,30.41,ESE,114,5.0,14.0,65,0.00,,---,0.00,VWS V14.01,2013-04-18 17:24:00,
2013-04-18 13:29:00,53.2,42.5,30.41,East,98,4.0,8.0,67,0.00,,---,0.00,VWS V14.01,2013-04-18 17:29:00,
2013-04-18 13:34:00,53.2,42.2,30.41,ESE,109,12.0,12.0,66,0.00,,---,0.00,VWS V14.01,2013-04-18 17:34:00,
2013-04-18 13:39:00,52.7,41.7,30.41,East,95,5.0,12.0,66,0.00,,---,0.00,VWS V14.01,2013-04-18 17:39:00,
2013-04-18 13:44:00,53.3,41.5,30.41,East,93,6.0,12.0,64,0.00,,---,0.00,VWS V14.01,2013-04-18 17:44:00,
2013-04-18 13:49:00,53.5,42.8,30.41,East,87,2.0,9.0,67,0.00,,---,0.00,VWS V14.01,2013-04-18 17:49:00,
2013-04-18 13:54:00,54.3,42.8,30.41,ESE,110,0.0,7.0,65,0.00,,---,0.00,VWS V14.01,2013-04-18 17:54:00,
2013-04-18 13:59:00,54.3,42.8,30.41,ESE,107,2.0,12.0,65,0.00,,---,0.00,VWS V14.01,2013-04-18 17:59:00,
2013-04-18 14:04:00,54.4,42.5,30.41,ESE,102,9.0,11.0,64,0.00,,---,0.00,VWS V14.01,2013-04-18 18:04:00,
2013-04-18 14:09:00,54.6,42.3,30.40,East,97,4.0,10.0,63,0.00,,---,0.00,VWS V14.01,2013-04-18 18:09:00,
2013-04-18 14:14:00,55.1,42.8,30.40,SE,131,5.0,9.0,63,0.00,,---,0.00,VWS V14.01,2013-04-18 18:14:00,
2013-04-18 14:19:00,55.5,43.1,30.40,SSE,156,2.0,6.0,63,0.00,,---,0.00,VWS V14.01,2013-04-18 18:19:00,
2013-04-18 14:24:00,55.7,43.3,30.40,ESE,110,3.0,7.0,63,0.00,,---,0.00,VWS V14.01,2013-04-18 18:24:00,
2013-04-18 14:29:00,56.1,41.1,30.39,SSE,168,2.0,6.0,57,0.00,,---,0.00,VWS V14.01,2013-04-18 18:29:00,
2013-04-18 14:34:00,55.7,40.3,30.39,SSE,160,2.0,6.0,56,0.00,,---,0.00,VWS V14.01,2013-04-18 18:34:00,
2013-04-18 14:39:00,55.1,39.7,30.39,South,185,3.0,8.0,56,0.00,,---,0.00,VWS V14.01,2013-04-18 18:39:00,
2013-04-18 14:44:00,54.7,40.2,30.38,South,182,3.0,7.0,58,0.00,,---,0.00,VWS V14.01,2013-04-18 18:44:00,
2013-04-18 14:49:00,55.0,40.5,30.38,South,170,3.0,5.0,58,0.00,,---,0.00,VWS V14.01,2013-04-18 18:49:00,
2013-04-18 14:54:00,55.5,39.1,30.38,SE,144,4.0,13.0,54,0.00,,---,0.00,VWS V14.01,2013-04-18 18:54:00,
2013-04-18 14:59:00,55.3,38.5,30.38,South,176,5.0,6.0,53,0.00,,---,0.00,VWS V14.01,2013-04-18 18:59:00,
2013-04-18 15:04:00,55.3,38.0,30.38,SSE,166,6.0,11.0,52,0.00,,---,0.00,VWS V14.01,2013-04-18 19:04:00,
2013-04-18 15:09:00,55.1,39.2,30.37,SE,133,1.0,10.0,55,0.00,,---,0.00,VWS V14.01,2013-04-18 19:09:00,
2013-04-18 15:14:00,55.2,37.9,30.37,SE,145,3.0,6.0,52,0.00,,---,0.00,VWS V14.01,2013-04-18 19:14:00,
2013-04-18 15:19:00,54.9,37.6,30.37,SSE,163,4.0,10.0,52,0.00,,---,0.00,VWS V14.01,2013-04-18 19:19:00,
2013-04-18 15:24:00,55.0,39.2,30.37,SSE,159,3.0,5.0,55,0.00,,---,0.00,VWS V14.01,2013-04-18 19:24:00,
2013-04-18 15:29:00,55.4,40.4,30.37,SSW,193,2.0,7.0,57,0.00,,---,0.00,VWS V14.01,2013-04-18 19:29:00,
2013-04-18 15:34:00,55.0,39.6,30.37,South,187,2.0,10.0,56,0.00,,---,0.00,VWS V14.01,2013-04-18 19:34:00,
2013-04-18 15:39:00,54.3,39.0,30.37,South,177,5.0,7.0,56,0.00,,---,0.00,VWS V14.01,2013-04-18 19:39:00,
2013-04-18 15:44:00,54.2,39.3,30.37,South,184,2.0,6.0,57,0.00,,---,0.00,VWS V14.01,2013-04-18 19:44:00,
2013-04-18 15:49:00,54.5,39.6,30.37,South,171,2.0,5.0,57,0.00,,---,0.00,VWS V14.01,2013-04-18 19:49:00,
2013-04-18 15:54:00,54.6,39.2,30.37,South,179,4.0,9.0,56,0.00,,---,0.00,VWS V14.01,2013-04-18 19:54:00,
2013-04-18 15:59:00,54.6,38.8,30.37,SSE,162,4.0,11.0,55,0.00,,---,0.00,VWS V14.01,2013-04-18 19:59:00,
2013-04-18 16:04:00,54.7,39.3,30.36,South,187,1.0,10.0,56,0.00,,---,0.00,VWS V14.01,2013-04-18 20:04:00,
2013-04-18 16:09:00,54.6,38.3,30.36,SSE,157,4.0,9.0,54,0.00,,---,0.00,VWS V14.01,2013-04-18 20:09:00,
2013-04-18 16:14:00,54.1,37.8,30.36,SSE,162,6.0,11.0,54,0.00,,---,0.00,VWS V14.01,2013-04-18 20:14:00,
2013-04-18 16:19:00,54.1,37.8,30.36,SSE,158,5.0,12.0,54,0.00,,---,0.00,VWS V14.01,2013-04-18 20:19:00,
2013-04-18 16:24:00,53.9,37.7,30.35,South,182,5.0,11.0,54,0.00,,---,0.00,VWS V14.01,2013-04-18 20:24:00,
2013-04-18 16:29:00,54.2,37.0,30.35,SSE,152,4.0,10.0,52,0.00,,---,0.00,VWS V14.01,2013-04-18 20:29:00,
2013-04-18 16:34:00,54.2,37.0,30.35,South,177,1.0,13.0,52,0.00,,---,0.00,VWS V14.01,2013-04-18 20:34:00,
2013-04-18 16:39:00,54.3,37.5,30.35,South,178,3.0,11.0,53,0.00,,---,0.00,VWS V14.01,2013-04-18 20:39:00,
2013-04-18 16:44:00,54.1,37.4,30.35,South,175,4.0,9.0,53,0.00,,---,0.00,VWS V14.01,2013-04-18 20:44:00,
2013-04-18 16:49:00,53.7,37.5,30.35,SSE,161,3.0,10.0,54,0.00,,---,0.00,VWS V14.01,2013-04-18 20:49:00,
2013-04-18 16:54:00,53.8,38.0,30.35,SSE,149,2.0,7.0,55,0.00,,---,0.00,VWS V14.01,2013-04-18 20:54:00,
2013-04-18 16:59:00,53.7,38.4,30.35,SSE,166,2.0,10.0,56,0.00,,---,0.00,VWS V14.01,2013-04-18 20:59:00,
2013-04-18 17:04:00,53.1,38.7,30.35,South,175,3.0,12.0,58,0.00,,---,0.00,VWS V14.01,2013-04-18 21:04:00,
2013-04-18 17:09:00,52.9,39.0,30.34,SSE,165,3.0,6.0,59,0.00,,---,0.00,VWS V14.01,2013-04-18 21:09:00,
2013-04-18 17:14:00,52.6,38.7,30.34,SSE,168,2.0,11.0,59,0.00,,---,0.00,VWS V14.01,2013-04-18 21:14:00,
2013-04-18 17:19:00,52.6,39.5,30.34,South,174,2.0,9.0,61,0.00,,---,0.00,VWS V14.01,2013-04-18 21:19:00,
2013-04-18 17:24:00,52.6,39.5,30.34,SSE,164,3.0,6.0,61,0.00,,---,0.00,VWS V14.01,2013-04-18 21:24:00,
2013-04-18 17:29:00,52.5,40.3,30.34,South,174,5.0,10.0,63,0.00,,---,0.00,VWS V14.01,2013-04-18 21:29:00,
2013-04-18 17:34:00,52.5,40.7,30.33,SE,145,2.0,11.0,64,0.00,,---,0.00,VWS V14.01,2013-04-18 21:34:00,
2013-04-18 17:39:00,52.6,40.8,30.33,SSE,153,3.0,10.0,64,0.00,,---,0.00,VWS V14.01,2013-04-18 21:39:00,
2013-04-18 17:44:00,52.9,41.1,30.33,SSE,163,3.0,9.0,64,0.00,,---,0.00,VWS V14.01,2013-04-18 21:44:00,
2013-04-18 17:49:00,53.0,41.6,30.33,SSE,161,5.0,7.0,65,0.00,,---,0.00,VWS V14.01,2013-04-18 21:49:00,
2013-04-18 17:54:00,52.9,41.5,30.33,South,175,7.0,10.0,65,0.00,,---,0.00,VWS V14.01,2013-04-18 21:54:00,
2013-04-18 17:59:00,52.8,42.2,30.33,SSE,149,1.0,10.0,67,0.00,,---,0.00,VWS V14.01,2013-04-18 21:59:00,
2013-04-18 18:04:00,52.8,41.8,30.33,ESE,120,6.0,11.0,66,0.00,,---,0.00,VWS V14.01,2013-04-18 22:04:00,
2013-04-18 18:09:00,52.5,41.9,30.32,South,170,4.0,10.0,67,0.00,,---,0.00,VWS V14.01,2013-04-18 22:09:00,
2013-04-18 18:14:00,52.3,42.1,30.32,SSE,147,4.0,6.0,68,0.00,,---,0.00,VWS V14.01,2013-04-18 22:14:00,
2013-04-18 18:19:00,52.4,42.2,30.32,SSE,159,4.0,9.0,68,0.00,,---,0.00,VWS V14.01,2013-04-18 22:19:00,
2013-04-18 18:24:00,52.3,42.1,30.32,SE,141,1.0,9.0,68,0.00,,---,0.00,VWS V14.01,2013-04-18 22:24:00,
2013-04-18 18:29:00,52.0,42.2,30.32,SSE,147,3.0,11.0,69,0.00,,---,0.00,VWS V14.01,2013-04-18 22:29:00,
2013-04-18 18:34:00,51.8,42.0,30.32,SE,139,4.0,10.0,69,0.00,,---,0.00,VWS V14.01,2013-04-18 22:34:00,
2013-04-18 18:39:00,51.5,42.0,30.32,SE,143,5.0,9.0,70,0.00,,---,0.00,VWS V14.01,2013-04-18 22:39:00,
2013-04-18 18:44:00,51.4,42.3,30.31,SE,143,5.0,7.0,71,0.00,,---,0.00,VWS V14.01,2013-04-18 22:44:00,
2013-04-18 18:49:00,51.3,42.2,30.31,SE,143,2.0,5.0,71,0.00,,---,0.00,VWS V14.01,2013-04-18 22:49:00,
2013-04-18 18:54:00,51.0,41.9,30.31,SSE,158,4.0,8.0,71,0.00,,---,0.00,VWS V14.01,2013-04-18 22:54:00,
2013-04-18 18:59:00,50.8,42.1,30.31,SE,133,9.0,9.0,72,0.00,,---,0.00,VWS V14.01,2013-04-18 22:59:00,
2013-04-18 19:04:00,50.6,41.9,30.31,SE,133,3.0,6.0,72,0.00,,---,0.00,VWS V14.01,2013-04-18 23:04:00,
2013-04-18 19:09:00,50.3,42.0,30.31,SSE,156,2.0,7.0,73,0.00,,---,0.00,VWS V14.01,2013-04-18 23:09:00,
2013-04-18 19:14:00,50.1,42.2,30.31,SSE,149,2.0,4.0,74,0.00,,---,0.00,VWS V14.01,2013-04-18 23:14:00,
2013-04-18 19:19:00,49.9,42.0,30.31,SE,146,2.0,5.0,74,0.00,,---,0.00,VWS V14.01,2013-04-18 23:19:00,
2013-04-18 19:24:00,49.7,41.8,30.31,SE,125,2.0,5.0,74,0.00,,---,0.00,VWS V14.01,2013-04-18 23:24:00,
2013-04-18 19:29:00,49.5,41.9,30.30,SE,142,3.0,7.0,75,0.00,,---,0.00,VWS V14.01,2013-04-18 23:29:00,
2013-04-18 19:34:00,49.4,41.8,30.31,SE,135,3.0,5.0,75,0.00,,---,0.00,VWS V14.01,2013-04-18 23:34:00,
2013-04-18 19:39:00,49.2,41.6,30.30,SE,128,1.0,9.0,75,0.00,,---,0.00,VWS V14.01,2013-04-18 23:39:00,
2013-04-18 19:44:00,49.2,41.6,30.30,SE,137,2.0,7.0,75,0.00,,---,0.00,VWS V14.01,2013-04-18 23:44:00,
2013-04-18 19:49:00,49.1,41.5,30.30,SE,137,3.0,10.0,75,0.00,,---,0.00,VWS V14.01,2013-04-18 23:49:00,
2013-04-18 19:54:00,49.1,41.5,30.30,SE,133,1.0,9.0,75,0.00,,---,0.00,VWS V14.01,2013-04-18 23:54:00,
2013-04-18 19:59:00,49.0,41.4,30.30,SE,129,2.0,7.0,75,0.00,,---,0.00,VWS V14.01,2013-04-18 23:59:00,
2013-04-18 20:04:00,48.9,41.7,30.30,SE,136,2.0,9.0,76,0.00,,---,0.00,VWS V14.01,2013-04-19 00:04:00,
2013-04-18 20:09:00,48.9,41.7,30.30,SE,140,2.0,10.0,76,0.00,,---,0.00,VWS V14.01,2013-04-19 00:09:00,
2013-04-18 20:14:00,48.8,41.9,30.29,SE,143,4.0,10.0,77,0.00,,---,0.00,VWS V14.01,2013-04-19 00:14:00,
2013-04-18 20:19:00,48.7,41.8,30.29,ESE,114,2.0,10.0,77,0.00,,---,0.00,VWS V14.01,2013-04-19 00:19:00,
2013-04-18 20:24:00,48.6,42.1,30.29,SE,137,2.0,11.0,78,0.00,,---,0.00,VWS V14.01,2013-04-19 00:24:00,
2013-04-18 20:29:00,48.5,42.0,30.29,SE,143,4.0,10.0,78,0.00,,---,0.00,VWS V14.01,2013-04-19 00:29:00,
2013-04-18 20:34:00,48.5,42.3,30.29,SE,133,7.0,10.0,79,0.00,,---,0.00,VWS V14.01,2013-04-19 00:34:00,
2013-04-18 20:39:00,48.4,42.2,30.29,SE,124,1.0,9.0,79,0.00,,---,0.00,VWS V14.01,2013-04-19 00:39:00,
2013-04-18 20:44:00,48.4,42.5,30.29,SE,145,2.0,9.0,80,0.00,,---,0.00,VWS V14.01,2013-04-19 00:44:00,
2013-04-18 20:49:00,48.5,42.6,30.30,SE,145,5.0,9.0,80,0.00,,---,0.00,VWS V14.01,2013-04-19 00:49:00,
2013-04-18 20:54:00,48.5,42.6,30.29,SE,135,2.0,10.0,80,0.00,,---,0.00,VWS V14.01,2013-04-19 00:54:00,
2013-04-18 20:59:00,48.6,43.0,30.29,SE,146,3.0,10.0,81,0.00,,---,0.00,VWS V14.01,2013-04-19 00:59:00,
2013-04-18 21:04:00,48.6,43.0,30.29,SE,145,6.0,11.0,81,0.00,,---,0.00,VWS V14.01,2013-04-19 01:04:00,
2013-04-18 21:09:00,48.5,43.3,30.29,SSE,153,4.0,10.0,82,0.00,,---,0.00,VWS V14.01,2013-04-19 01:09:00,
2013-04-18 21:14:00,48.5,43.3,30.29,SE,133,6.0,10.0,82,0.00,,---,0.00,VWS V14.01,2013-04-19 01:14:00,
2013-04-18 21:19:00,48.6,43.4,30.28,SSE,149,6.0,11.0,82,0.00,,---,0.00,VWS V14.01,2013-04-19 01:19:00,
2013-04-18 21:24:00,48.6,43.4,30.28,SE,125,1.0,9.0,82,0.00,,---,0.00,VWS V14.01,2013-04-19 01:24:00,
2013-04-18 21:29:00,48.7,43.5,30.27,SE,135,6.0,12.0,82,0.00,,---,0.00,VWS V14.01,2013-04-19 01:29:00,
2013-04-18 21:34:00,48.8,43.9,30.27,ESE,114,5.0,11.0,83,0.00,,---,0.00,VWS V14.01,2013-04-19 01:34:00,
2013-04-18 21:39:00,48.9,44.0,30.27,SE,129,5.0,15.0,83,0.00,,---,0.00,VWS V14.01,2013-04-19 01:39:00,
2013-04-18 21:44:00,49.0,44.1,30.27,SSE,166,6.0,11.0,83,0.00,,---,0.00,VWS V14.01,2013-04-19 01:44:00,
2013-04-18 21:49:00,49.0,44.1,30.27,SE,146,3.0,8.0,83,0.00,,---,0.00,VWS V14.01,2013-04-19 01:49:00,
2013-04-18 21:54:00,49.1,44.2,30.26,SSE,168,7.0,13.0,83,0.00,,---,0.00,VWS V14.01,2013-04-19 01:54:00,
2013-04-18 21:59:00,49.2,44.3,30.26,SE,131,3.0,10.0,83,0.00,,---,0.00,VWS V14.01,2013-04-19 01:59:00,
2013-04-18 22:04:00,49.3,44.4,30.26,South,172,1.0,11.0,83,0.00,,---,0.00,VWS V14.01,2013-04-19 02:04:00,
2013-04-18 22:09:00,49.4,44.5,30.25,South,171,6.0,14.0,83,0.00,,---,0.00,VWS V14.01,2013-04-19 02:09:00,
2013-04-18 22:14:00,49.4,44.5,30.25,SSE,162,7.0,10.0,83,0.00,,---,0.00,VWS V14.01,2013-04-19 02:14:00,
2013-04-18 22:19:00,49.5,44.6,30.25,SE,139,5.0,13.0,83,0.00,,---,0.00,VWS V14.01,2013-04-19 02:19:00,
2013-04-18 22:24:00,49.5,44.9,30.25,SE,144,4.0,14.0,84,0.00,,---,0.00,VWS V14.01,2013-04-19 02:24:00,
2013-04-18 22:29:00,49.5,44.9,30.24,SSE,149,7.0,14.0,84,0.00,,---,0.00,VWS V14.01,2013-04-19 02:29:00,
2013-04-18 22:34:00,49.5,44.9,30.24,SSE,154,1.0,14.0,84,0.00,,---,0.00,VWS V14.01,2013-04-19 02:34:00,
2013-04-18 22:39:00,49.6,45.0,30.24,SE,129,11.0,12.0,84,0.00,,---,0.00,VWS V14.01,2013-04-19 02:39:00,
2013-04-18 22:44:00,49.7,45.4,30.24,SSE,168,3.0,13.0,85,0.00,,---,0.00,VWS V14.01,2013-04-19 02:44:00,
2013-04-18 22:49:00,49.8,45.5,30.24,SSE,153,10.0,12.0,85,0.00,,---,0.00,VWS V14.01,2013-04-19 02:49:00,
2013-04-18 22:54:00,49.9,45.6,30.23,SE,133,7.0,12.0,85,0.00,,---,0.00,VWS V14.01,2013-04-19 02:54:00,
2013-04-18 22:59:00,50.0,46.0,30.23,SSE,164,11.0,11.0,86,0.00,,---,0.00,VWS V14.01,2013-04-19 02:59:00,
2013-04-18 23:04:00,50.1,46.1,30.22,South,176,7.0,11.0,86,0.00,,---,0.00,VWS V14.01,2013-04-19 03:04:00,
2013-04-18 23:09:00,50.2,46.2,30.22,South,170,3.0,12.0,86,0.00,,---,0.00,VWS V14.01,2013-04-19 03:09:00,
2013-04-18 23:14:00,50.2,46.2,30.22,SE,138,3.0,13.0,86,0.00,,---,0.00,VWS V14.01,2013-04-19 03:14:00,
2013-04-18 23:19:00,50.3,46.6,30.21,SE,139,11.0,13.0,87,0.00,,---,0.00,VWS V14.01,2013-04-19 03:19:00,
2013-04-18 23:24:00,50.3,46.6,30.21,SSE,154,7.0,10.0,87,0.00,,---,0.00,VWS V14.01,2013-04-19 03:24:00,
2013-04-18 23:29:00,50.3,46.6,30.21,SSE,164,6.0,10.0,87,0.00,,---,0.00,VWS V14.01,2013-04-19 03:29:00,
2013-04-18 23:34:00,50.4,47.0,30.21,SE,146,5.0,15.0,88,0.00,,---,0.00,VWS V14.01,2013-04-19 03:34:00,
2013-04-18 23:39:00,50.5,47.1,30.20,SSE,154,5.0,11.0,88,0.00,,---,0.00,VWS V14.01,2013-04-19 03:39:00,
2013-04-18 23:44:00,50.6,47.5,30.20,ESE,122,4.0,10.0,89,0.00,,---,0.00,VWS V14.01,2013-04-19 03:44:00,
2013-04-18 23:49:00,50.7,47.6,30.20,South,184,11.0,15.0,89,0.00,,---,0.00,VWS V14.01,2013-04-19 03:49:00,
2013-04-18 23:54:00,50.8,48.0,30.20,South,170,18.0,18.0,90,0.00,,---,0.00,VWS V14.01,2013-04-19 03:54:00,
2013-04-18 23:59:00,50.8,48.0,30.20,SSE,166,1.0,15.0,90,0.00,,---,0.00,VWS V14.01,2013-04-19 03:59:00,